Delta Ios — SVAK9 — position and weather

sailwx.info

Track history (hours):
 
Tides and Currents Weather Stations Pressure Air Temp Water Temp Dewpoint Dewpoint Depression Visibility Wind Speed Wind Dir Waves Ship Positions

Delta Ios

Last reported at 2014-May-09 12:19 UTC. Time now 2014-Aug-01 15:56 UTC.
Position S 33°47' E 018°06'.
Warning: this ship's position is months out of date.

Length 276 m; draft 9.3 m.

Type: Ship. MMSI: 240821000.

Date/timePositionNaut miles runAvg speedWind from/ knotsBaromVisibWave heightAir tempDewpointWater temp
2014-May-09 12:19S 33°47' E 018°06'12 6.6
2014-May-09 10:31S 33°58' E 018°13'4 3.0
2014-May-09 09:15S 33°54' E 018°14'3 2.0
2014-May-09 07:33S 33°57' E 018°12'8 8.4
2014-May-09 06:33S 34°05' E 018°08'8 8.0
2014-May-09 05:33S 34°11' E 018°02'7 7.1
2014-May-09 04:31S 34°18' E 018°05'8 8.0
2014-May-09 03:33S 34°25' E 018°08'8 8.1
2014-May-09 02:32S 34°33' E 018°12'9 7.2
2014-May-09 01:19S 34°39' E 018°19'6 7.4
2014-May-09 00:32S 34°42' E 018°25'7 7.1
2014-May-08 23:32S 34°46' E 018°33'18 7.4
2014-May-08 21:07S 34°54' E 018°52'164 7.5
2014-May-07 23:20S 34°47' E 022°11'  
2014-May-05 01:10S 32°11' E 032°05'6 8.8
2014-May-05 00:29S 32°09' E 032°11'12 9.0
2014-May-04 23:12S 32°04' E 032°24'  
Track history (hours):
 
Tides and Currents Weather Stations Pressure Air Temp Water Temp Dewpoint Dewpoint Depression Visibility Wind Speed Wind Dir Waves Ship Positions

Delta Ios

Last reported at 2014-May-09 12:19 UTC. Time now 2014-Aug-01 15:56 UTC.
Position S 33°47' E 018°06'.
Warning: this ship's position is months out of date.

Length 276 m; draft 9.3 m.

Type: Ship. MMSI: 240821000.

Date/timePositionNaut miles runAvg speedWind from/ knotsBaromVisibWave heightAir tempDewpointWater temp
2014-May-09 12:19S 33°47' E 018°06'12 6.6
2014-May-09 10:31S 33°58' E 018°13'4 3.0
2014-May-09 09:15S 33°54' E 018°14'3 2.0
2014-May-09 07:33S 33°57' E 018°12'8 8.4
2014-May-09 06:33S 34°05' E 018°08'8 8.0
2014-May-09 05:33S 34°11' E 018°02'7 7.1
2014-May-09 04:31S 34°18' E 018°05'8 8.0
2014-May-09 03:33S 34°25' E 018°08'8 8.1
2014-May-09 02:32S 34°33' E 018°12'9 7.2
2014-May-09 01:19S 34°39' E 018°19'6 7.4
2014-May-09 00:32S 34°42' E 018°25'7 7.1
2014-May-08 23:32S 34°46' E 018°33'18 7.4
2014-May-08 21:07S 34°54' E 018°52'164 7.5
2014-May-07 23:20S 34°47' E 022°11'  
2014-May-05 01:10S 32°11' E 032°05'6 8.8
2014-May-05 00:29S 32°09' E 032°11'12 9.0
2014-May-04 23:12S 32°04' E 032°24'  

Dump ship's entire track history